This is the latest recevied weather packets stored in our database for station/object MEGLR. If no packets are shown the sender has not sent any weather packets the latest 1 day(s).
| Time | Temp. | Humidity | Pressure | Rain* | Wind** | Luminosity | Snow |
|---|---|---|---|---|---|---|---|
| 1777989603 | 11.67° C | 91% | 0 hPa | - | 1.79 m/s, 195° | - | - |
| 1777989003 | 11.67° C | 92% | 0 hPa | - | 2.68 m/s, 195° | - | - |
| 1777988403 | 11.11° C | 92% | 0 hPa | - | 3.13 m/s, 200° | - | - |
| 1777987804 | 11.67° C | 92% | 0 hPa | - | 2.24 m/s, 200° | - | - |
| 1777987203 | 11.67° C | 92% | 0 hPa | - | 3.13 m/s, 205° | - | - |
| 1777986602 | 11.11° C | 92% | 0 hPa | - | 4.47 m/s, 215° | - | - |
| 1777986003 | 11.11° C | 92% | 0 hPa | - | 4.02 m/s, 215° | - | - |
| 1777985403 | 11.67° C | 91% | 0 hPa | - | 4.47 m/s, 210° | - | - |
| 1777984803 | 11.67° C | 91% | 0 hPa | - | 5.81 m/s, 220° | - | - |
| 1777984203 | 11.67° C | 89% | 0 hPa | - | 4.92 m/s, 205° | - | - |
| 1777983603 | 11.67° C | 90% | 0 hPa | - | 4.47 m/s, 200° | - | - |
| 1777983002 | 11.67° C | 91% | 0 hPa | - | 3.58 m/s, 200° | - | - |
| 1777982403 | 11.67° C | 90% | 0 hPa | - | 4.47 m/s, 200° | - | - |
| 1777981803 | 11.67° C | 92% | 0 hPa | - | 4.02 m/s, 205° | - | - |
| 1777981203 | 100° C | 92% | 0 hPa | - | 2.68 m/s, 195° | - | - |
| 1777980603 | 11.67° C | 91% | 0 hPa | - | 4.02 m/s, 205° | - | - |
| 1777980003 | 11.67° C | 91% | 0 hPa | - | 4.47 m/s, 210° | - | - |
| 1777979403 | 11.67° C | 90% | 0 hPa | - | 5.36 m/s, 215° | - | - |
| 1777978803 | 11.67° C | 90% | 0 hPa | - | 5.36 m/s, 210° | - | - |
| 1777978203 | 11.67° C | 90% | 0 hPa | - | 4.47 m/s, 200° | - | - |
| 1777977603 | 11.67° C | 90% | 0 hPa | - | 5.36 m/s, 205° | - | - |
* Rain since midnight (hover to see other rain measurements)
** Current wind speed in m/s (hover to see current wind gust speed)